Time;durP1;ratioP1;P1;durP2;ratioP2;P2;SDS_P1;SDS_P2;PMS_P1;PMS_P2;Temp;Humidity;BMP_temperature;BMP_pressure;BME280_temperature;BME280_humidity;BME280_pressure;Samples;Min_cycle;Max_cycle;Signal;HPM_P1;HPM_P2
2022/01/24 00:01:10;;;;;;;11.10;6.53;;;;;;;-4.11;85.43;95717.25;5083407;28;20754;-71
2022/01/24 00:03:38;;;;;;;8.07;6.40;;;;;;;-4.18;85.20;95720.31;5083422;28;20211;-72
2022/01/24 00:06:09;;;;;;;11.07;6.40;;;;;;;-4.14;85.32;95727.06;5083002;28;20228;-71
2022/01/24 00:08:35;;;;;;;7.17;6.10;;;;;;;-4.05;85.17;95730.66;5082596;28;20609;-72
2022/01/24 00:11:07;;;;;;;8.40;6.40;;;;;;;-4.09;85.68;95732.19;5083318;28;20333;-70
2022/01/24 00:16:22;;;;;;;8.47;5.77;;;;;;;-3.88;84.36;95724.59;5081516;28;20679;-70
2022/01/24 00:27:04;;;;;;;7.43;6.00;;;;;;;-3.94;84.69;95735.16;5084362;28;20250;-72
2022/01/24 00:29:30;;;;;;;12.33;6.30;;;;;;;-4.06;85.09;95738.91;5083456;28;20211;-71
2022/01/24 00:31:57;;;;;;;7.53;6.73;;;;;;;-3.99;85.25;95738.31;5084224;28;20208;-71
2022/01/24 00:34:25;;;;;;;7.20;6.57;;;;;;;-3.99;85.44;95736.69;5083395;28;20193;-71
2022/01/24 00:36:53;;;;;;;9.03;6.80;;;;;;;-3.96;85.04;95740.91;5083322;28;21506;-71
2022/01/24 00:39:21;;;;;;;11.90;7.70;;;;;;;-4.02;85.04;95730.75;5084269;28;20258;-71
2022/01/24 00:41:59;;;;;;;10.40;8.07;;;;;;;-3.98;86.01;95732.56;5081956;28;20201;-70
2022/01/24 00:44:42;;;;;;;10.47;7.80;;;;;;;-3.73;85.54;95735.03;5082117;28;20212;-70
2022/01/24 00:47:15;;;;;;;12.97;8.57;;;;;;;-3.67;84.49;95740.16;5082675;27;20233;-70
2022/01/24 00:49:54;;;;;;;12.60;8.73;;;;;;;-3.95;84.78;95738.44;5083492;28;20265;-71
2022/01/24 00:55:06;;;;;;;13.80;9.33;;;;;;;-3.77;84.72;95748.13;5083882;28;20216;-70
2022/01/24 00:57:33;;;;;;;12.27;8.93;;;;;;;-3.80;85.08;95753.00;5083133;28;20193;-71
2022/01/24 01:00:01;;;;;;;10.80;8.80;;;;;;;-3.76;84.96;95744.88;5082239;28;20205;-71
2022/01/24 01:02:28;;;;;;;10.90;7.90;;;;;;;-3.54;84.36;95746.38;5082401;28;20233;-70
2022/01/24 01:05:12;;;;;;;11.40;8.40;;;;;;;-3.72;84.09;95736.72;5082478;28;20216;-71
2022/01/24 01:07:53;;;;;;;16.27;8.50;;;;;;;-3.82;84.39;95744.66;5082870;28;20240;-70
2022/01/24 01:18:34;;;;;;;16.60;6.87;;;;;;;-3.77;84.21;95750.63;5083209;28;20258;-70
2022/01/24 01:21:13;;;;;;;13.93;7.07;;;;;;;-3.63;83.43;95751.03;5082534;28;20301;-70
2022/01/24 01:23:46;;;;;;;9.80;7.30;;;;;;;-3.63;83.80;95741.94;5081081;28;20252;-70
2022/01/24 01:26:21;;;;;;;10.20;7.30;;;;;;;-3.73;84.13;95744.97;5081846;28;20221;-70
2022/01/24 01:28:53;;;;;;;8.23;6.83;;;;;;;-3.84;84.87;95738.78;5081242;28;20200;-70
2022/01/24 01:31:29;;;;;;;10.43;7.17;;;;;;;-3.58;84.60;95740.47;5082345;28;20229;-70
2022/01/24 01:34:07;;;;;;;8.70;6.23;;;;;;;-3.68;84.28;95743.44;5082242;28;20194;-71
2022/01/24 01:37:07;;;;;;;10.77;7.00;;;;;;;-3.79;83.95;95739.78;5081848;28;20208;-71
2022/01/24 01:53:49;;;;;;;9.27;7.47;;;;;;;-3.71;83.68;95738.38;5082388;28;20211;-70
2022/01/24 01:56:16;;;;;;;9.53;6.80;;;;;;;-3.99;83.90;95739.16;5081264;28;20215;-71
2022/01/24 01:58:43;;;;;;;9.33;6.57;;;;;;;-4.15;84.48;95745.25;5082198;28;20399;-71
2022/01/24 02:01:09;;;;;;;9.53;7.40;;;;;;;-3.90;84.48;95741.06;5082161;28;20265;-71
2022/01/24 02:03:37;;;;;;;9.70;7.37;;;;;;;-4.20;85.21;95741.75;5082918;28;20674;-70
2022/01/24 02:06:04;;;;;;;11.70;7.90;;;;;;;-4.00;83.92;95716.78;5078946;28;20224;-70
2022/01/24 02:08:33;;;;;;;12.53;7.03;;;;;;;-4.01;83.64;95739.91;5079774;28;21265;-71
2022/01/24 02:11:00;;;;;;;8.70;7.03;;;;;;;-3.89;83.96;95746.09;5079871;28;20212;-71
2022/01/24 02:13:28;;;;;;;8.23;6.57;;;;;;;-3.73;83.23;95739.16;5082156;28;20210;-70
2022/01/24 02:16:05;;;;;;;10.77;8.27;;;;;;;-3.71;82.86;95745.81;5081387;28;20288;-70
2022/01/24 02:18:37;;;;;;;9.47;7.97;;;;;;;-3.86;83.00;95732.94;5082115;28;20201;-71
2022/01/24 02:21:13;;;;;;;7.60;6.63;;;;;;;-3.95;83.93;95748.38;5082582;28;20255;-70
2022/01/24 02:23:45;;;;;;;12.13;7.67;;;;;;;-3.66;83.46;95745.97;5079947;28;20220;-70
2022/01/24 02:26:16;;;;;;;13.83;6.90;;;;;;;-3.69;82.83;95744.25;5081174;28;20243;-70
2022/01/24 02:34:27;;;;;;;12.03;8.30;;;;;;;-3.94;83.45;95755.03;5080369;28;20239;-71
2022/01/24 02:36:57;;;;;;;8.97;7.77;;;;;;;-4.00;83.68;95749.03;5081762;28;20212;-71
2022/01/24 02:50:42;;;;;;;14.87;8.57;;;;;;;-3.91;82.90;95759.25;5086936;28;20207;-71
2022/01/24 02:53:13;;;;;;;10.73;7.70;;;;;;;-4.21;83.08;95769.03;5085787;28;20203;-72
2022/01/24 02:55:42;;;;;;;11.13;7.23;;;;;;;-4.09;83.42;95769.44;5085452;28;20197;-72
2022/01/24 02:58:09;;;;;;;11.67;7.93;;;;;;;-4.05;82.64;95771.22;5084146;28;20224;-72
2022/01/24 03:00:37;;;;;;;11.33;8.37;;;;;;;-3.94;82.42;95774.88;5084788;28;20201;-72
2022/01/24 03:03:04;;;;;;;11.60;7.93;;;;;;;-3.96;82.36;95776.47;5086624;28;20573;-71
2022/01/24 03:05:31;;;;;;;10.37;8.17;;;;;;;-4.03;82.68;95778.72;5086208;28;20224;-73
2022/01/24 03:07:59;;;;;;;12.30;8.30;;;;;;;-4.07;82.94;95786.84;5085869;28;20257;-71
2022/01/24 03:10:28;;;;;;;11.77;8.17;;;;;;;-4.14;83.26;95789.13;5085448;28;20208;-70
2022/01/24 03:13:10;;;;;;;8.63;7.80;;;;;;;-4.21;83.24;95774.84;5084592;28;20540;-72
2022/01/24 03:15:38;;;;;;;11.77;8.17;;;;;;;-4.21;83.62;95792.22;5084724;28;20204;-71
2022/01/24 03:18:05;;;;;;;9.63;7.57;;;;;;;-4.41;84.76;95794.78;5084317;28;20306;-74
2022/01/24 03:20:34;;;;;;;11.03;7.50;;;;;;;-4.51;84.89;95801.91;5084134;27;20201;-71
2022/01/24 03:23:01;;;;;;;15.80;8.10;;;;;;;-4.40;85.83;95796.47;5084896;28;20241;-72
2022/01/24 03:25:29;;;;;;;16.13;8.93;;;;;;;-4.34;85.90;95804.97;5084277;28;20201;-71
2022/01/24 03:27:57;;;;;;;10.00;7.90;;;;;;;-4.21;84.84;95802.13;5085346;28;20290;-72
2022/01/24 03:30:24;;;;;;;11.83;8.50;;;;;;;-4.15;84.92;95802.31;5085387;28;20711;-72
2022/01/24 03:32:51;;;;;;;18.93;9.63;;;;;;;-4.23;85.02;95800.41;5085258;28;20329;-71
2022/01/24 03:35:18;;;;;;;16.83;10.60;;;;;;;-4.23;84.76;95811.16;5084175;28;20302;-72
2022/01/24 03:37:45;;;;;;;20.53;10.37;;;;;;;-4.02;84.43;95816.00;5084648;28;20201;-72
2022/01/24 03:40:13;;;;;;;13.80;9.47;;;;;;;-3.97;84.53;95818.66;5084175;28;20760;-72
2022/01/24 03:42:39;;;;;;;17.67;10.90;;;;;;;-4.04;84.37;95815.13;5085958;28;20205;-73
2022/01/24 03:45:10;;;;;;;13.40;10.00;;;;;;;-4.00;83.70;95809.47;5083925;28;20672;-73
2022/01/24 03:47:56;;;;;;;15.47;10.33;;;;;;;-3.88;83.51;95823.91;5085014;28;20236;-71
2022/01/24 03:50:23;;;;;;;15.87;9.37;;;;;;;-3.89;83.70;95824.69;5084392;28;21736;-72
2022/01/24 03:52:51;;;;;;;14.30;9.60;;;;;;;-3.72;83.11;95831.09;5085315;28;20220;-72
2022/01/24 03:55:17;;;;;;;20.83;9.43;;;;;;;-3.69;82.71;95831.16;5084521;28;21281;-74
2022/01/24 03:57:44;;;;;;;10.20;8.83;;;;;;;-3.75;83.24;95826.03;5084565;28;20222;-73
2022/01/24 04:00:13;;;;;;;10.93;9.33;;;;;;;-3.69;82.67;95836.13;5083145;28;20205;-70
2022/01/24 04:02:41;;;;;;;12.33;9.53;;;;;;;-3.69;83.47;95836.13;5084272;28;20877;-72
2022/01/24 04:05:08;;;;;;;15.33;8.67;;;;;;;-3.55;82.57;95844.91;5083978;28;20743;-72
2022/01/24 04:07:35;;;;;;;13.03;8.03;;;;;;;-3.62;82.44;95845.50;5084466;28;20807;-72
2022/01/24 04:10:06;;;;;;;13.30;8.27;;;;;;;-4.04;83.36;95846.53;5084327;28;21064;-72
2022/01/24 04:12:34;;;;;;;14.83;8.70;;;;;;;-4.11;83.89;95838.88;5083830;28;20205;-72
2022/01/24 04:15:11;;;;;;;10.53;7.67;;;;;;;-4.54;85.69;95855.53;5081510;28;20202;-72
2022/01/24 04:17:43;;;;;;;11.37;8.73;;;;;;;-4.25;85.53;95856.56;5085151;28;20252;-71
2022/01/24 04:22:57;;;;;;;17.03;9.47;;;;;;;-4.23;84.17;95863.28;5084266;28;20285;-71
2022/01/24 04:25:24;;;;;;;13.00;8.77;;;;;;;-4.13;83.47;95860.31;5083902;28;20205;-71
2022/01/24 04:27:53;;;;;;;16.07;10.60;;;;;;;-4.37;83.28;95871.84;5083671;28;20726;-70
2022/01/24 04:30:20;;;;;;;11.40;9.37;;;;;;;-4.40;83.97;95876.69;5082782;27;20243;-70
2022/01/24 04:32:48;;;;;;;15.50;9.37;;;;;;;-4.45;84.94;95883.13;5084926;28;20204;-71
2022/01/24 04:35:16;;;;;;;17.60;9.60;;;;;;;-4.61;85.05;95880.88;5084005;28;20608;-71
2022/01/24 04:37:43;;;;;;;12.17;8.77;;;;;;;-4.64;85.22;95883.25;5083654;28;20213;-72
2022/01/24 04:40:10;;;;;;;15.80;10.07;;;;;;;-4.63;84.43;95893.22;5084872;28;20201;-72
2022/01/24 04:42:45;;;;;;;10.63;8.60;;;;;;;-4.40;83.71;95894.06;5082669;28;20197;-70
2022/01/24 04:51:07;;;;;;;19.57;9.20;;;;;;;-4.27;82.03;95905.31;5068838;28;20350;-70
2022/01/24 04:56:17;;;;;;;11.83;8.53;;;;;;;-4.76;83.00;95910.06;5083302;28;20584;-71
2022/01/24 04:58:44;;;;;;;9.60;7.97;;;;;;;-4.85;83.45;95881.66;5083531;28;20225;-72
2022/01/24 05:01:12;;;;;;;9.70;7.27;;;;;;;-5.10;83.82;95907.91;5082916;28;21060;-73
2022/01/24 05:03:40;;;;;;;10.90;8.83;;;;;;;-5.27;83.67;95905.63;5083361;28;20202;-72
2022/01/24 05:06:07;;;;;;;14.90;9.67;;;;;;;-4.96;82.42;95910.16;5082713;28;20198;-71
2022/01/24 05:08:34;;;;;;;9.53;6.77;;;;;;;-4.98;81.01;95919.16;5082818;28;20707;-71
2022/01/24 05:11:05;;;;;;;15.17;8.60;;;;;;;-4.87;80.53;95917.09;5082416;28;20205;-71
2022/01/24 05:24:31;;;;;;;9.10;7.03;;;;;;;-4.97;78.21;95945.66;5082151;28;20216;-72
2022/01/24 05:26:58;;;;;;;11.77;7.17;;;;;;;-5.16;78.25;95949.00;5082606;28;20868;-72
2022/01/24 05:29:24;;;;;;;6.73;6.10;;;;;;;-5.16;79.00;95955.59;5082551;28;20286;-71
2022/01/24 05:31:51;;;;;;;8.63;7.13;;;;;;;-5.13;78.06;95963.16;5082577;28;20205;-70
2022/01/24 05:34:19;;;;;;;8.77;6.90;;;;;;;-4.93;77.36;95963.94;5082542;28;20204;-69
2022/01/24 05:36:46;;;;;;;5.73;5.23;;;;;;;-5.13;76.92;95968.09;5082575;28;20189;-72
2022/01/24 05:39:13;;;;;;;5.17;4.00;;;;;;;-5.25;75.96;95983.34;5083804;28;20192;-70
2022/01/24 05:41:40;;;;;;;5.67;4.63;;;;;;;-4.78;75.24;95981.91;5081674;28;20205;-71
2022/01/24 05:44:07;;;;;;;5.37;4.77;;;;;;;-4.89;74.83;95980.63;5082232;28;20205;-70
2022/01/24 05:46:35;;;;;;;6.70;5.10;;;;;;;-5.05;74.73;95979.19;5081923;28;20229;-71
2022/01/24 05:49:04;;;;;;;5.10;4.60;;;;;;;-5.08;73.73;95985.63;5083077;28;20228;-71
2022/01/24 05:51:32;;;;;;;5.47;4.57;;;;;;;-5.02;74.81;95990.84;5081589;28;20576;-72
2022/01/24 05:53:59;;;;;;;4.33;3.93;;;;;;;-4.79;74.09;95990.13;5082187;28;20257;-69
2022/01/24 05:56:26;;;;;;;5.27;4.13;;;;;;;-4.95;73.31;95987.84;5082269;28;20201;-71
2022/01/24 05:58:52;;;;;;;8.97;4.67;;;;;;;-5.08;73.56;96001.34;5082286;28;20298;-72
2022/01/24 06:01:20;;;;;;;5.90;4.57;;;;;;;-5.25;74.34;95994.88;5081080;28;20201;-70
2022/01/24 06:03:47;;;;;;;10.13;4.50;;;;;;;-5.14;74.81;96006.06;5080537;28;20270;-70
2022/01/24 06:06:13;;;;;;;6.37;4.20;;;;;;;-4.93;74.33;96013.50;5081644;28;20197;-70
2022/01/24 06:08:41;;;;;;;4.67;3.80;;;;;;;-4.63;73.81;96016.38;5081302;28;20256;-71
2022/01/24 06:11:08;;;;;;;7.37;4.73;;;;;;;-4.52;73.59;96030.06;5081511;28;20197;-70
2022/01/24 06:13:37;;;;;;;5.57;4.90;;;;;;;-4.93;74.23;96026.75;5082028;28;20201;-73
2022/01/24 06:16:05;;;;;;;7.50;4.90;;;;;;;-4.83;73.66;96037.91;5081629;28;20328;-70
2022/01/24 06:18:32;;;;;;;8.53;4.70;;;;;;;-4.93;74.35;96041.63;5082101;28;20197;-71
2022/01/24 06:20:59;;;;;;;7.30;5.50;;;;;;;-4.86;74.34;96043.59;5081140;28;21495;-71
2022/01/24 06:23:26;;;;;;;9.27;4.80;;;;;;;-4.80;74.00;96041.38;5081505;28;20220;-70
2022/01/24 06:25:54;;;;;;;5.57;4.97;;;;;;;-4.78;73.21;96025.69;5080614;28;20251;-70
2022/01/24 06:28:21;;;;;;;6.50;5.00;;;;;;;-4.67;73.67;96045.16;5081468;28;20229;-70
2022/01/24 06:30:48;;;;;;;4.70;3.97;;;;;;;-4.54;72.93;96041.56;5080304;28;20690;-71
2022/01/24 06:33:15;;;;;;;5.37;4.80;;;;;;;-4.64;70.86;96049.41;5082253;28;20254;-71
2022/01/24 06:35:42;;;;;;;10.47;5.77;;;;;;;-4.44;70.79;96051.03;5081046;28;20210;-72
2022/01/24 06:38:08;;;;;;;4.67;4.10;;;;;;;-4.29;70.97;96054.13;5082953;28;20221;-70
2022/01/24 06:40:35;;;;;;;7.27;4.77;;;;;;;-4.16;70.36;96056.28;5081764;28;20290;-72
2022/01/24 06:43:04;;;;;;;4.93;4.53;;;;;;;-4.00;70.86;96057.72;5081389;28;20208;-71
2022/01/24 06:45:30;;;;;;;5.97;4.43;;;;;;;-3.78;72.01;96049.44;5081713;28;20201;-73
2022/01/24 06:47:57;;;;;;;10.60;5.40;;;;;;;-3.58;70.97;96057.59;5081195;28;20294;-72
2022/01/24 06:50:24;;;;;;;7.67;6.03;;;;;;;-3.44;71.19;96057.28;5080877;28;20201;-72
2022/01/24 06:52:51;;;;;;;5.97;4.93;;;;;;;-3.51;69.96;96062.88;5080861;28;20201;-70
2022/01/24 06:55:18;;;;;;;7.23;5.20;;;;;;;-3.94;68.83;96024.81;5081091;28;20220;-70
2022/01/24 06:57:44;;;;;;;10.87;4.67;;;;;;;-3.51;67.95;96069.47;5081862;28;20212;-70
2022/01/24 07:00:13;;;;;;;5.53;4.87;;;;;;;-3.48;69.04;96060.50;5081678;28;20710;-72
2022/01/24 07:02:40;;;;;;;6.17;5.23;;;;;;;-3.48;68.92;96067.94;5079740;28;20289;-72
2022/01/24 07:05:08;;;;;;;10.00;5.13;;;;;;;-3.62;67.75;96074.03;5081655;28;20275;-72
2022/01/24 07:07:35;;;;;;;6.03;4.93;;;;;;;-3.57;68.01;96076.69;5080867;28;20233;-71
2022/01/24 07:10:02;;;;;;;5.87;4.60;;;;;;;-3.47;66.95;96082.06;5080367;28;20223;-72
2022/01/24 07:12:28;;;;;;;6.30;4.67;;;;;;;-3.88;67.00;96087.13;5081770;28;20201;-71
2022/01/24 07:14:56;;;;;;;5.00;4.60;;;;;;;-3.90;68.04;96088.69;5081234;28;20205;-71
2022/01/24 07:17:35;;;;;;;7.60;5.17;;;;;;;-3.91;67.63;96096.94;5081622;28;20201;-71
2022/01/24 07:20:02;;;;;;;5.93;5.37;;;;;;;-3.87;67.29;96084.69;5082649;28;20211;-70
2022/01/24 07:22:28;;;;;;;8.90;5.50;;;;;;;-3.81;68.43;96091.53;5080910;28;20224;-71
2022/01/24 07:24:55;;;;;;;9.77;6.13;;;;;;;-3.73;68.64;96095.16;5080141;28;20205;-72
2022/01/24 07:27:22;;;;;;;6.97;6.27;;;;;;;-3.48;67.13;96097.75;5081270;28;20836;-71
2022/01/24 07:29:49;;;;;;;8.00;4.73;;;;;;;-3.49;66.70;96097.72;5081791;28;20686;-71
2022/01/24 07:32:16;;;;;;;13.73;8.17;;;;;;;-3.14;71.99;96101.44;5081457;28;20752;-73
2022/01/24 07:34:44;;;;;;;17.90;9.60;;;;;;;-1.81;78.23;96094.19;5081656;28;20309;-72
2022/01/24 07:37:11;;;;;;;12.20;8.00;;;;;;;-1.46;66.51;96101.06;5085463;28;20233;-73
2022/01/24 07:39:37;;;;;;;6.40;5.23;;;;;;;-1.08;63.11;96116.28;5084630;28;20646;-71
2022/01/24 07:42:15;;;;;;;9.13;5.70;;;;;;;-1.86;62.47;96118.97;5083762;28;20193;-72
2022/01/24 07:44:45;;;;;;;10.00;5.77;;;;;;;-2.12;64.16;96122.28;5083795;28;20211;-72
2022/01/24 07:47:12;;;;;;;7.80;6.00;;;;;;;-2.94;66.26;96122.03;5084532;28;20189;-71
2022/01/24 07:49:38;;;;;;;7.60;5.30;;;;;;;-2.97;65.92;96129.41;5085126;28;20226;-71
2022/01/24 07:52:07;;;;;;;10.57;6.77;;;;;;;-2.95;65.98;96128.63;5083042;28;20574;-72
2022/01/24 07:54:34;;;;;;;15.87;7.30;;;;;;;-2.86;67.25;96128.97;5085340;28;20806;-71
2022/01/24 07:57:01;;;;;;;11.13;7.77;;;;;;;-3.35;70.53;96140.44;5084262;28;20733;-71
2022/01/24 07:59:27;;;;;;;11.40;7.43;;;;;;;-3.30;70.94;96143.94;5085113;27;20201;-71
2022/01/24 08:01:54;;;;;;;11.10;7.03;;;;;;;-3.57;72.04;96146.25;5084030;28;20197;-70
2022/01/24 08:04:21;;;;;;;8.83;7.53;;;;;;;-3.73;72.54;96147.31;5084149;28;20305;-71
2022/01/24 08:06:49;;;;;;;10.37;6.77;;;;;;;-3.75;73.53;96143.94;5083894;28;20205;-71
2022/01/24 08:09:17;;;;;;;9.57;6.90;;;;;;;-3.57;73.40;96117.28;5083744;28;20232;-72
2022/01/24 08:11:44;;;;;;;10.43;6.97;;;;;;;-3.32;71.34;96145.53;5084339;28;20197;-72
2022/01/24 08:14:11;;;;;;;10.03;6.80;;;;;;;-3.14;71.10;96151.16;5083626;28;20649;-71
2022/01/24 08:16:40;;;;;;;8.13;5.97;;;;;;;-2.86;70.92;96148.03;5083755;28;20201;-72
2022/01/24 08:19:06;;;;;;;9.40;7.00;;;;;;;-2.50;70.61;96148.44;5084469;28;20635;-71
2022/01/24 08:21:35;;;;;;;11.17;7.93;;;;;;;-2.65;69.71;96147.91;5083525;28;20258;-71
2022/01/24 08:24:02;;;;;;;10.40;7.13;;;;;;;-2.58;69.59;96153.16;5084274;28;20212;-72
2022/01/24 08:26:31;;;;;;;10.30;6.07;;;;;;;-2.75;69.16;96156.72;5083881;28;20322;-71
2022/01/24 08:29:00;;;;;;;7.53;6.10;;;;;;;-2.91;68.76;96130.44;5083975;28;20619;-71
2022/01/24 08:31:28;;;;;;;7.33;5.90;;;;;;;-3.08;69.34;96167.16;5082915;28;20237;-72
2022/01/24 08:33:54;;;;;;;7.53;5.63;;;;;;;-2.97;69.27;96174.97;5083536;28;20197;-71
2022/01/24 08:36:21;;;;;;;8.27;6.43;;;;;;;-2.97;69.55;96172.50;5084796;28;20254;-71
2022/01/24 08:38:50;;;;;;;9.00;6.63;;;;;;;-2.90;69.06;96171.94;5083603;28;20285;-71
2022/01/24 08:41:24;;;;;;;13.83;6.10;;;;;;;-3.06;68.50;96172.19;5081866;28;20652;-71
2022/01/24 08:43:59;;;;;;;10.33;6.43;;;;;;;-2.76;67.18;96179.91;5083238;28;20205;-72
2022/01/24 08:46:26;;;;;;;7.53;5.80;;;;;;;-2.63;67.61;96186.13;5082857;28;20208;-71
2022/01/24 08:48:53;;;;;;;5.37;4.53;;;;;;;-2.70;66.35;96184.22;5083570;28;20731;-71
2022/01/24 08:51:20;;;;;;;11.80;5.47;;;;;;;-2.98;66.87;96185.75;5082504;28;20225;-70
2022/01/24 08:53:47;;;;;;;6.87;5.93;;;;;;;-2.81;67.76;96182.22;5082950;28;20205;-71
2022/01/24 08:56:15;;;;;;;8.40;6.10;;;;;;;-2.43;67.15;96186.00;5083618;28;20706;-71
2022/01/24 08:58:42;;;;;;;12.20;6.57;;;;;;;-2.53;66.37;96193.13;5082626;28;20236;-72
2022/01/24 09:01:10;;;;;;;8.53;6.20;;;;;;;-2.49;66.46;96189.97;5081380;28;20201;-72
2022/01/24 09:03:39;;;;;;;10.47;7.27;;;;;;;-2.17;65.43;96188.53;5081492;28;20242;-72
2022/01/24 09:06:09;;;;;;;12.53;6.87;;;;;;;-2.16;65.94;96192.72;5082588;28;20232;-72
2022/01/24 09:08:36;;;;;;;9.10;6.83;;;;;;;-1.94;64.87;96191.78;5083025;28;20323;-72
2022/01/24 09:11:04;;;;;;;11.10;7.63;;;;;;;-2.06;64.86;96197.22;5082200;28;20204;-72
2022/01/24 09:13:32;;;;;;;10.90;6.70;;;;;;;-2.11;65.50;96199.56;5081827;28;20193;-73
2022/01/24 09:16:00;;;;;;;9.13;7.23;;;;;;;-2.13;64.88;96188.69;5083239;28;20588;-71
2022/01/24 09:18:28;;;;;;;9.83;7.03;;;;;;;-1.87;64.94;96193.66;5080802;28;20239;-69
2022/01/24 09:20:56;;;;;;;8.43;7.27;;;;;;;-1.87;63.05;96191.19;5080924;28;20282;-71
2022/01/24 09:23:23;;;;;;;12.17;7.53;;;;;;;-2.10;63.80;96197.91;5080784;28;20217;-71
2022/01/24 09:25:50;;;;;;;11.93;8.90;;;;;;;-1.98;63.99;96177.53;5080378;28;20696;-72
2022/01/24 09:28:17;;;;;;;11.47;7.53;;;;;;;-1.77;63.45;96201.50;5080858;28;20270;-72
2022/01/24 09:30:44;;;;;;;13.87;8.00;;;;;;;-1.74;62.70;96200.75;5080786;28;20322;-71
2022/01/24 09:33:13;;;;;;;13.37;8.33;;;;;;;-2.29;63.81;96203.06;5081668;28;20210;-72
2022/01/24 09:35:42;;;;;;;13.60;7.37;;;;;;;-2.02;62.85;96205.63;5081722;28;20208;-72
2022/01/24 09:38:09;;;;;;;12.47;7.10;;;;;;;-1.51;62.11;96199.81;5082550;28;20334;-72
2022/01/24 09:40:37;;;;;;;11.63;7.40;;;;;;;-1.15;61.71;96194.22;5081792;28;20197;-72
2022/01/24 09:43:04;;;;;;;11.23;7.20;;;;;;;-0.79;60.76;96195.28;5081517;28;20690;-72
2022/01/24 09:45:31;;;;;;;9.10;7.17;;;;;;;-0.11;57.47;96192.94;5081257;28;20205;-72
2022/01/24 09:47:59;;;;;;;11.13;8.40;;;;;;;0.48;56.40;96191.88;5082323;28;20206;-70
2022/01/24 09:50:25;;;;;;;10.20;7.27;;;;;;;0.69;55.19;96176.50;5082581;28;20309;-71
2022/01/24 09:52:54;;;;;;;16.67;8.27;;;;;;;0.55;55.29;96183.69;5081365;28;20695;-71
2022/01/24 09:55:24;;;;;;;9.23;6.77;;;;;;;0.38;53.98;96184.13;5082648;28;20254;-71
2022/01/24 09:57:52;;;;;;;10.77;7.80;;;;;;;0.58;54.73;96178.75;5082340;28;20201;-70
2022/01/24 10:00:21;;;;;;;12.57;7.40;;;;;;;0.42;53.09;96185.88;5080775;28;20216;-73
2022/01/24 10:02:50;;;;;;;10.00;6.80;;;;;;;-0.46;55.95;96189.50;5080317;28;21430;-71
2022/01/24 10:05:19;;;;;;;12.13;7.37;;;;;;;-0.11;56.85;96193.78;5081261;28;20320;-71
2022/01/24 10:07:56;;;;;;;10.70;7.10;;;;;;;0.23;55.46;96184.63;5081451;28;20205;-70
2022/01/24 10:10:32;;;;;;;13.37;7.50;;;;;;;0.54;55.80;96177.00;5082123;28;20225;-70
2022/01/24 10:16:28;;;;;;;12.33;8.40;;;;;;;-0.45;56.65;96178.72;5082336;28;20241;-71
2022/01/24 10:19:10;;;;;;;7.77;5.33;;;;;;;-1.37;56.59;96182.78;5080498;28;20201;-71
2022/01/24 10:21:39;;;;;;;7.47;6.70;;;;;;;-1.71;57.17;96153.47;5071403;28;20350;-73
2022/01/24 10:24:07;;;;;;;8.23;6.27;;;;;;;-1.62;56.54;96173.69;5080179;28;20217;-72
2022/01/24 10:26:34;;;;;;;9.00;6.43;;;;;;;-1.66;57.67;96169.41;5081537;28;20246;-71
2022/01/24 10:29:01;;;;;;;9.60;6.63;;;;;;;-1.60;57.54;96169.59;5081422;28;20229;-71
2022/01/24 10:31:29;;;;;;;11.07;6.43;;;;;;;-1.55;57.56;96182.22;5081520;28;20236;-72
2022/01/24 10:34:05;;;;;;;8.03;6.73;;;;;;;-1.84;57.05;96169.69;5081002;28;20227;-72
2022/01/24 10:36:38;;;;;;;12.30;7.10;;;;;;;-1.88;57.38;96170.41;5079066;28;20309;-70
2022/01/24 10:39:13;;;;;;;9.43;6.40;;;;;;;-1.72;57.23;96164.22;5082487;28;20250;-70
2022/01/24 10:41:54;;;;;;;8.33;6.67;;;;;;;-1.64;56.79;96162.84;5081399;28;20640;-70
2022/01/24 10:44:29;;;;;;;11.07;7.53;;;;;;;-1.75;56.45;96160.03;5081181;28;20201;-70
2022/01/24 10:47:12;;;;;;;6.53;5.60;;;;;;;-1.73;55.26;96178.34;5081383;28;20200;-70
2022/01/24 10:49:40;;;;;;;4.00;3.60;;;;;;;-2.14;54.04;96172.06;5081092;28;20247;-71
2022/01/24 10:52:10;;;;;;;4.13;3.77;;;;;;;-1.99;54.25;96173.34;5088285;28;20264;-72
2022/01/24 10:54:38;;;;;;;3.93;3.63;;;;;;;-2.24;54.57;96186.66;5106649;28;20265;-69
2022/01/24 10:57:05;;;;;;;4.40;3.97;;;;;;;-2.29;56.35;96186.50;5103166;28;20201;-71
2022/01/24 10:59:35;;;;;;;5.50;4.80;;;;;;;-1.65;55.78;96181.09;5110602;28;20716;-72
2022/01/24 11:02:04;;;;;;;6.83;4.47;;;;;;;-1.01;54.05;96185.50;5108807;28;20680;-71
2022/01/24 11:04:33;;;;;;;5.60;3.90;;;;;;;-1.61;51.39;96180.38;5108087;28;20205;-71
2022/01/24 11:07:03;;;;;;;8.20;5.00;;;;;;;-1.54;50.71;96187.25;5108919;28;20288;-71
2022/01/24 11:09:32;;;;;;;5.80;4.47;;;;;;;-1.97;50.86;96190.03;5109773;28;20225;-71
2022/01/24 11:12:06;;;;;;;6.00;4.70;;;;;;;-1.96;52.40;96188.38;5112979;28;20193;-70
2022/01/24 11:14:32;;;;;;;3.77;3.47;;;;;;;-1.59;50.31;96183.78;5111038;28;20197;-70
2022/01/24 11:17:01;;;;;;;4.60;3.70;;;;;;;-1.67;49.27;96182.69;5110302;28;20201;-70
2022/01/24 11:19:33;;;;;;;3.93;2.97;;;;;;;-1.69;48.28;96180.94;5110570;28;20274;-72
2022/01/24 11:22:04;;;;;;;6.50;3.80;;;;;;;-2.20;49.67;96183.44;5111029;28;20219;-70
2022/01/24 11:24:39;;;;;;;5.07;4.50;;;;;;;-2.71;51.04;96185.00;5111103;28;20242;-71
2022/01/24 11:27:09;;;;;;;4.27;3.87;;;;;;;-2.80;50.20;96188.03;5110698;28;20406;-71
2022/01/24 11:29:36;;;;;;;4.33;3.90;;;;;;;-2.54;51.18;96183.97;5110623;28;20229;-69
2022/01/24 11:32:11;;;;;;;5.00;4.47;;;;;;;-2.38;52.13;96168.75;5111524;28;20185;-70
2022/01/24 11:34:40;;;;;;;4.27;3.87;;;;;;;-2.24;53.11;96177.53;5111910;28;20291;-73
2022/01/24 11:37:09;;;;;;;6.23;4.63;;;;;;;-2.25;52.17;96162.56;5112136;28;20524;-70
2022/01/24 11:39:39;;;;;;;8.90;4.17;;;;;;;-2.35;50.90;96176.31;5113048;28;20200;-70
2022/01/24 11:42:07;;;;;;;4.50;3.70;;;;;;;-2.31;52.20;96185.59;5112924;28;20208;-71
2022/01/24 11:44:50;;;;;;;5.43;4.40;;;;;;;-2.37;51.79;96190.38;5113459;28;20192;-69
2022/01/24 11:47:22;;;;;;;4.17;3.77;;;;;;;-2.16;52.19;96190.22;5113731;28;20671;-70
2022/01/24 11:49:52;;;;;;;5.47;4.83;;;;;;;-2.11;53.01;96186.25;5113847;28;20224;-71
2022/01/24 11:52:19;;;;;;;6.20;4.97;;;;;;;-2.01;54.59;96199.84;5113725;28;20220;-70
2022/01/24 11:54:51;;;;;;;6.17;4.83;;;;;;;-1.88;54.94;96192.81;5113263;28;20564;-71
2022/01/24 11:57:26;;;;;;;6.10;4.70;;;;;;;-2.00;54.07;96196.56;5113606;28;20695;-71
2022/01/24 12:00:14;;;;;;;5.27;4.60;;;;;;;-2.15;55.05;96186.94;5113292;28;20197;-72
2022/01/24 12:02:43;;;;;;;5.53;4.07;;;;;;;-1.96;55.88;96188.38;5113363;28;20204;-71
2022/01/24 12:05:11;;;;;;;6.23;4.47;;;;;;;-1.60;55.50;96189.56;5113402;28;20197;-71
2022/01/24 12:07:43;;;;;;;5.57;5.07;;;;;;;-1.60;56.06;96187.06;5113159;28;20296;-71
2022/01/24 12:10:54;;;;;;;6.53;5.23;;;;;;;-1.97;56.77;96186.69;5113568;28;20231;-70
2022/01/24 12:13:28;;;;;;;5.53;5.00;;;;;;;-2.14;56.26;96169.56;5113087;28;20600;-70
2022/01/24 12:16:04;;;;;;;8.20;5.23;;;;;;;-2.30;55.75;96183.97;5112980;28;20201;-71
2022/01/24 12:18:52;;;;;;;5.87;4.10;;;;;;;-2.20;54.94;96189.28;5112802;28;20197;-70
2022/01/24 12:21:22;;;;;;;5.67;3.93;;;;;;;-2.19;55.14;96181.00;5112642;28;20292;-71
2022/01/24 12:23:51;;;;;;;5.43;4.80;;;;;;;-2.22;55.80;96185.03;5112219;28;20799;-70
2022/01/24 12:26:31;;;;;;;4.93;4.43;;;;;;;-2.44;56.72;96194.28;5112617;28;20204;-72
2022/01/24 12:29:03;;;;;;;3.97;3.63;;;;;;;-3.16;58.58;96175.13;5113151;28;20192;-71
2022/01/24 12:31:34;;;;;;;5.83;5.03;;;;;;;-3.10;59.87;96192.75;5112666;28;20233;-70
2022/01/24 12:34:08;;;;;;;7.70;4.97;;;;;;;-2.86;59.96;96198.63;5113246;28;20200;-70
2022/01/24 12:37:12;;;;;;;5.57;4.50;;;;;;;-2.79;59.41;96205.50;5112619;28;20703;-71
2022/01/24 12:39:49;;;;;;;7.40;5.03;;;;;;;-2.98;59.21;96212.25;5111701;28;20284;-71
2022/01/24 12:42:32;;;;;;;6.53;5.30;;;;;;;-3.16;58.89;96209.94;5111643;28;20754;-71
2022/01/24 12:47:56;;;;;;;5.63;4.60;;;;;;;-3.62;61.26;96210.66;5112464;28;20611;-71
2022/01/24 12:50:24;;;;;;;7.73;5.30;;;;;;;-3.56;61.36;96213.41;5112638;28;20315;-70
2022/01/24 12:52:52;;;;;;;6.30;4.90;;;;;;;-3.62;60.68;96204.84;5112776;28;20295;-71
2022/01/24 12:55:20;;;;;;;5.37;4.87;;;;;;;-3.60;60.84;96209.09;5112416;28;20193;-72
2022/01/24 12:57:47;;;;;;;4.50;3.80;;;;;;;-3.45;59.98;96213.78;5111989;28;20193;-71
2022/01/24 13:00:17;;;;;;;5.73;4.77;;;;;;;-3.56;57.19;96200.97;5111967;28;20193;-71
2022/01/24 13:02:44;;;;;;;8.17;4.80;;;;;;;-3.52;56.23;96212.75;5110214;28;20246;-70